Littleton, CO (80120)

3:07 PM MST on February 27, 2015 (GMT -0700)
Arapahoe Community College | Change Station
CLOSE
Current Station
Personal Weather Station
Location: Littleton, CO
Elevation: 5371 ft
Nearby Weather Stations

Elev 5371 ft 39.61 °N, 105.02 °W | Updated 1 minute ago

Partly Cloudy
Partly Cloudy
22.6 °F
Feels Like 18 °F
N
3.4
Wind Variable Wind from WNW
Gusts 5.4 mph

Today
High -- | Low -- °F
--% Chance of Precip.
Yesterday
High -- | Low -- °F
Precip. -- in
6:36 AM 5:49 PM
Waxing Gibbous, 72% visible
Pressure 30.11 in
Visibility 10.0 miles
Clouds Few 5000 ft
Few 11000 ft
Few 22000 ft
Windchill 18 °F
Dew Point 11 °F
Humidity 61%
Rainfall -999.00 in
Snow Depth Not available.
UV 3 out of 12
Pollen .60 out of 12
Air Quality Not available.
Flu Activity Not available.
METAR KAPA 272153Z 00000KT 10SM FEW050 FEW110 FEW220 M07/M15 A2986 RMK AO2 SLP194 T10671150

More Conditions Fewer Conditions

Pressure 30.11 in
Visibility 10.0 miles
Clouds Few 5000 ft
Few 11000 ft
Few 22000 ft
Windchill 18 °F
Dew Point 11 °F
Humidity 61%
Rainfall -999.00 in
Snow Depth Not available.
UV 3 out of 12
Pollen .60 out of 12
Air Quality Not available.
Flu Activity Not available.
METAR KAPA 272153Z 00000KT 10SM FEW050 FEW110 FEW220 M07/M15 A2986 RMK AO2 SLP194 T10671150

More Conditions Fewer Conditions

Nowcast | as of 11:46 am MST on February 27, 2015

Gusty southerly winds 15 to 25 mph will over eastern sections of Weld...Adams and Arapahoe counties through mid afternoon. As a result...areas of blowing snow will develop which may reduce visibilities to less than a mile and cause minor drifting of snow. Wind chill temperatures in the Winder areas will range from zero to 10 below. Elsewhere...a few snow flurries will linger over parts of Denver and the western suburbs.

×

10-Day Weather Forecast

Almanac

Astronomy

Feb. 27, 2015 Rise Set
Actual Time
Civil Twilight
Nautical Twilight
Astronomical Twilight
Moon
Length of Visible Light
Length of Day
Tomorrow will be .
, % of the Moon is Illuminated

Today's Extremes

State Highs State Lows

Community

WunderPhotos

Upload Photos

1,800,848 photos uploaded!

WunderBlogs® & News

Nearby

Air Quality

  Air Quality AQ Index Pollutant
Not available.

Snow Depth

Station Depth Elevation

Earthquake Activity

City Distance Mag. Time & Date
Minimum magnitude displayed is 2.5.

Coastal Water Temperatures

Place Temperature

Nearby Weather Stations